sensor_id;sensor_type;location;lat;lon;timestamp;P1;durP1;ratioP1;P2;durP2;ratioP2
15858;SDS011;8029;52.202;7.308;2022-07-05T00:00:18;0.73;;;0.68;;
15858;SDS011;8029;52.202;7.308;2022-07-05T00:02:44;1.27;;;0.98;;
15858;SDS011;8029;52.202;7.308;2022-07-05T00:05:10;1.75;;;1.15;;
15858;SDS011;8029;52.202;7.308;2022-07-05T00:07:36;0.77;;;0.77;;
15858;SDS011;8029;52.202;7.308;2022-07-05T00:10:02;1.70;;;1.08;;
15858;SDS011;8029;52.202;7.308;2022-07-05T00:12:30;1.27;;;1.17;;
15858;SDS011;8029;52.202;7.308;2022-07-05T00:14:57;0.60;;;0.60;;
15858;SDS011;8029;52.202;7.308;2022-07-05T00:17:23;1.58;;;1.00;;
15858;SDS011;8029;52.202;7.308;2022-07-05T00:19:49;2.85;;;1.35;;
15858;SDS011;8029;52.202;7.308;2022-07-05T00:22:15;6.70;;;1.10;;
15858;SDS011;8029;52.202;7.308;2022-07-05T00:24:41;0.50;;;0.50;;
15858;SDS011;8029;52.202;7.308;2022-07-05T00:27:07;0.85;;;0.85;;
15858;SDS011;8029;52.202;7.308;2022-07-05T00:29:33;2.97;;;1.60;;
15858;SDS011;8029;52.202;7.308;2022-07-05T00:31:59;0.68;;;0.65;;
15858;SDS011;8029;52.202;7.308;2022-07-05T00:34:25;1.02;;;0.98;;
15858;SDS011;8029;52.202;7.308;2022-07-05T00:36:53;0.93;;;0.93;;
15858;SDS011;8029;52.202;7.308;2022-07-05T00:39:18;0.52;;;0.52;;
15858;SDS011;8029;52.202;7.308;2022-07-05T00:41:44;2.58;;;1.70;;
15858;SDS011;8029;52.202;7.308;2022-07-05T00:44:11;2.30;;;0.65;;
15858;SDS011;8029;52.202;7.308;2022-07-05T00:46:39;6.88;;;1.48;;
15858;SDS011;8029;52.202;7.308;2022-07-05T00:49:05;0.52;;;0.52;;
15858;SDS011;8029;52.202;7.308;2022-07-05T00:51:32;0.82;;;0.82;;
15858;SDS011;8029;52.202;7.308;2022-07-05T00:53:59;0.90;;;0.90;;
15858;SDS011;8029;52.202;7.308;2022-07-05T00:56:25;1.27;;;1.08;;
15858;SDS011;8029;52.202;7.308;2022-07-05T00:58:52;0.63;;;0.63;;
15858;SDS011;8029;52.202;7.308;2022-07-05T01:01:18;1.35;;;0.77;;
15858;SDS011;8029;52.202;7.308;2022-07-05T01:03:44;2.10;;;0.98;;
15858;SDS011;8029;52.202;7.308;2022-07-05T01:06:16;1.20;;;1.10;;
15858;SDS011;8029;52.202;7.308;2022-07-05T01:08:42;0.77;;;0.77;;
15858;SDS011;8029;52.202;7.308;2022-07-05T01:11:10;0.82;;;0.80;;
15858;SDS011;8029;52.202;7.308;2022-07-05T01:13:37;0.80;;;0.80;;
15858;SDS011;8029;52.202;7.308;2022-07-05T01:16:03;1.30;;;1.15;;
15858;SDS011;8029;52.202;7.308;2022-07-05T01:18:30;0.50;;;0.50;;
15858;SDS011;8029;52.202;7.308;2022-07-05T01:20:57;1.67;;;0.93;;
15858;SDS011;8029;52.202;7.308;2022-07-05T01:23:23;0.60;;;0.60;;
15858;SDS011;8029;52.202;7.308;2022-07-05T01:25:49;0.77;;;0.77;;
15858;SDS011;8029;52.202;7.308;2022-07-05T01:28:16;1.38;;;1.27;;
15858;SDS011;8029;52.202;7.308;2022-07-05T01:30:42;1.27;;;1.17;;
15858;SDS011;8029;52.202;7.308;2022-07-05T01:33:08;1.27;;;1.17;;
15858;SDS011;8029;52.202;7.308;2022-07-05T01:35:35;3.00;;;1.15;;
15858;SDS011;8029;52.202;7.308;2022-07-05T01:38:01;1.13;;;1.02;;
15858;SDS011;8029;52.202;7.308;2022-07-05T01:40:28;0.90;;;0.88;;
15858;SDS011;8029;52.202;7.308;2022-07-05T01:42:54;0.60;;;0.60;;
15858;SDS011;8029;52.202;7.308;2022-07-05T01:45:20;1.08;;;1.08;;
15858;SDS011;8029;52.202;7.308;2022-07-05T01:48:06;1.08;;;1.02;;
15858;SDS011;8029;52.202;7.308;2022-07-05T01:50:33;0.95;;;0.93;;
15858;SDS011;8029;52.202;7.308;2022-07-05T01:53:00;7.75;;;1.33;;
15858;SDS011;8029;52.202;7.308;2022-07-05T01:55:29;0.60;;;0.57;;
15858;SDS011;8029;52.202;7.308;2022-07-05T01:57:55;1.00;;;0.98;;
15858;SDS011;8029;52.202;7.308;2022-07-05T02:00:21;1.33;;;0.80;;
15858;SDS011;8029;52.202;7.308;2022-07-05T02:02:46;0.90;;;0.90;;
15858;SDS011;8029;52.202;7.308;2022-07-05T02:05:13;1.08;;;1.08;;
15858;SDS011;8029;52.202;7.308;2022-07-05T02:07:48;2.47;;;1.67;;
15858;SDS011;8029;52.202;7.308;2022-07-05T02:10:14;0.80;;;0.80;;
15858;SDS011;8029;52.202;7.308;2022-07-05T02:12:42;1.13;;;0.90;;
15858;SDS011;8029;52.202;7.308;2022-07-05T02:15:08;1.23;;;1.13;;
15858;SDS011;8029;52.202;7.308;2022-07-05T02:17:34;0.80;;;0.80;;
15858;SDS011;8029;52.202;7.308;2022-07-05T02:20:00;1.20;;;0.90;;
15858;SDS011;8029;52.202;7.308;2022-07-05T02:22:26;0.77;;;0.77;;
15858;SDS011;8029;52.202;7.308;2022-07-05T02:24:52;1.52;;;1.42;;
15858;SDS011;8029;52.202;7.308;2022-07-05T02:27:18;1.33;;;1.23;;
15858;SDS011;8029;52.202;7.308;2022-07-05T02:29:44;1.20;;;1.10;;
15858;SDS011;8029;52.202;7.308;2022-07-05T02:32:10;1.27;;;1.08;;
15858;SDS011;8029;52.202;7.308;2022-07-05T02:34:36;0.80;;;0.68;;
15858;SDS011;8029;52.202;7.308;2022-07-05T02:37:02;0.70;;;0.70;;
15858;SDS011;8029;52.202;7.308;2022-07-05T02:39:28;1.13;;;1.13;;
15858;SDS011;8029;52.202;7.308;2022-07-05T02:41:54;8.05;;;1.30;;
15858;SDS011;8029;52.202;7.308;2022-07-05T02:44:21;1.98;;;1.38;;
15858;SDS011;8029;52.202;7.308;2022-07-05T02:46:47;1.58;;;1.10;;
15858;SDS011;8029;52.202;7.308;2022-07-05T02:49:13;1.73;;;1.30;;
15858;SDS011;8029;52.202;7.308;2022-07-05T02:51:41;1.15;;;1.13;;
15858;SDS011;8029;52.202;7.308;2022-07-05T02:54:08;0.80;;;0.80;;
15858;SDS011;8029;52.202;7.308;2022-07-05T02:56:34;1.20;;;1.10;;
15858;SDS011;8029;52.202;7.308;2022-07-05T02:59:00;1.27;;;0.93;;
15858;SDS011;8029;52.202;7.308;2022-07-05T03:01:27;0.75;;;0.75;;
15858;SDS011;8029;52.202;7.308;2022-07-05T03:03:53;1.77;;;1.23;;
15858;SDS011;8029;52.202;7.308;2022-07-05T03:06:19;1.27;;;1.15;;
15858;SDS011;8029;52.202;7.308;2022-07-05T03:08:45;1.40;;;1.30;;
15858;SDS011;8029;52.202;7.308;2022-07-05T03:11:11;1.45;;;1.25;;
15858;SDS011;8029;52.202;7.308;2022-07-05T03:13:37;6.72;;;1.20;;
15858;SDS011;8029;52.202;7.308;2022-07-05T03:16:03;0.85;;;0.85;;
15858;SDS011;8029;52.202;7.308;2022-07-05T03:18:29;1.08;;;1.00;;
15858;SDS011;8029;52.202;7.308;2022-07-05T03:20:55;1.27;;;1.17;;
15858;SDS011;8029;52.202;7.308;2022-07-05T03:23:21;0.73;;;0.73;;
15858;SDS011;8029;52.202;7.308;2022-07-05T03:25:47;4.50;;;1.20;;
15858;SDS011;8029;52.202;7.308;2022-07-05T03:28:13;1.40;;;0.95;;
15858;SDS011;8029;52.202;7.308;2022-07-05T03:30:39;1.58;;;1.48;;
15858;SDS011;8029;52.202;7.308;2022-07-05T03:33:05;0.95;;;0.95;;
15858;SDS011;8029;52.202;7.308;2022-07-05T03:35:31;1.00;;;1.00;;
15858;SDS011;8029;52.202;7.308;2022-07-05T03:37:57;1.65;;;1.20;;
15858;SDS011;8029;52.202;7.308;2022-07-05T03:40:23;1.45;;;1.35;;
15858;SDS011;8029;52.202;7.308;2022-07-05T03:42:49;0.82;;;0.57;;
15858;SDS011;8029;52.202;7.308;2022-07-05T03:45:15;2.17;;;1.75;;
15858;SDS011;8029;52.202;7.308;2022-07-05T03:47:41;1.30;;;1.30;;
15858;SDS011;8029;52.202;7.308;2022-07-05T03:50:07;1.25;;;1.10;;
15858;SDS011;8029;52.202;7.308;2022-07-05T03:52:33;1.02;;;0.90;;
15858;SDS011;8029;52.202;7.308;2022-07-05T03:54:59;1.10;;;0.82;;
15858;SDS011;8029;52.202;7.308;2022-07-05T03:57:25;0.90;;;0.90;;
15858;SDS011;8029;52.202;7.308;2022-07-05T03:59:51;0.63;;;0.63;;
15858;SDS011;8029;52.202;7.308;2022-07-05T04:02:17;2.60;;;1.55;;
15858;SDS011;8029;52.202;7.308;2022-07-05T04:04:43;1.02;;;1.02;;
15858;SDS011;8029;52.202;7.308;2022-07-05T04:07:09;0.70;;;0.70;;
15858;SDS011;8029;52.202;7.308;2022-07-05T04:09:35;1.67;;;1.30;;
15858;SDS011;8029;52.202;7.308;2022-07-05T04:12:01;1.30;;;1.25;;
15858;SDS011;8029;52.202;7.308;2022-07-05T04:14:27;1.50;;;1.40;;
15858;SDS011;8029;52.202;7.308;2022-07-05T04:16:53;2.17;;;1.77;;
15858;SDS011;8029;52.202;7.308;2022-07-05T04:19:19;1.95;;;1.77;;
15858;SDS011;8029;52.202;7.308;2022-07-05T04:21:45;1.80;;;1.52;;
15858;SDS011;8029;52.202;7.308;2022-07-05T04:24:12;4.35;;;1.45;;
15858;SDS011;8029;52.202;7.308;2022-07-05T04:26:38;1.85;;;1.33;;
15858;SDS011;8029;52.202;7.308;2022-07-05T04:29:03;2.60;;;1.58;;
15858;SDS011;8029;52.202;7.308;2022-07-05T04:31:29;1.33;;;1.30;;
15858;SDS011;8029;52.202;7.308;2022-07-05T04:33:56;1.10;;;1.10;;
15858;SDS011;8029;52.202;7.308;2022-07-05T04:36:22;1.25;;;1.25;;
15858;SDS011;8029;52.202;7.308;2022-07-05T04:38:48;1.30;;;1.30;;
15858;SDS011;8029;52.202;7.308;2022-07-05T04:41:13;1.63;;;1.52;;
15858;SDS011;8029;52.202;7.308;2022-07-05T04:43:39;1.92;;;1.75;;
15858;SDS011;8029;52.202;7.308;2022-07-05T04:46:05;2.00;;;1.88;;
15858;SDS011;8029;52.202;7.308;2022-07-05T04:48:31;1.80;;;1.70;;
15858;SDS011;8029;52.202;7.308;2022-07-05T04:50:57;3.80;;;2.35;;
15858;SDS011;8029;52.202;7.308;2022-07-05T04:53:23;2.15;;;1.95;;
15858;SDS011;8029;52.202;7.308;2022-07-05T04:55:49;1.98;;;1.85;;
15858;SDS011;8029;52.202;7.308;2022-07-05T04:58:15;2.60;;;2.10;;
15858;SDS011;8029;52.202;7.308;2022-07-05T05:00:42;1.70;;;1.60;;
15858;SDS011;8029;52.202;7.308;2022-07-05T05:03:08;2.75;;;2.42;;
15858;SDS011;8029;52.202;7.308;2022-07-05T05:05:35;2.70;;;2.15;;
15858;SDS011;8029;52.202;7.308;2022-07-05T05:08:01;4.85;;;1.92;;
15858;SDS011;8029;52.202;7.308;2022-07-05T05:10:27;1.85;;;1.58;;
15858;SDS011;8029;52.202;7.308;2022-07-05T05:12:53;2.67;;;2.33;;
15858;SDS011;8029;52.202;7.308;2022-07-05T05:15:19;3.45;;;2.30;;
15858;SDS011;8029;52.202;7.308;2022-07-05T05:17:46;2.47;;;2.25;;
15858;SDS011;8029;52.202;7.308;2022-07-05T05:20:13;2.13;;;1.90;;
15858;SDS011;8029;52.202;7.308;2022-07-05T05:22:39;9.00;;;3.00;;
15858;SDS011;8029;52.202;7.308;2022-07-05T05:25:05;5.95;;;2.65;;
15858;SDS011;8029;52.202;7.308;2022-07-05T05:27:31;2.72;;;2.33;;
15858;SDS011;8029;52.202;7.308;2022-07-05T05:29:57;4.63;;;2.28;;
15858;SDS011;8029;52.202;7.308;2022-07-05T05:32:23;2.70;;;2.17;;
15858;SDS011;8029;52.202;7.308;2022-07-05T05:34:49;1.95;;;1.83;;
15858;SDS011;8029;52.202;7.308;2022-07-05T05:37:15;2.80;;;2.30;;
15858;SDS011;8029;52.202;7.308;2022-07-05T05:39:41;3.95;;;2.60;;
15858;SDS011;8029;52.202;7.308;2022-07-05T05:42:07;2.92;;;2.63;;
15858;SDS011;8029;52.202;7.308;2022-07-05T05:44:33;2.47;;;2.25;;
15858;SDS011;8029;52.202;7.308;2022-07-05T05:46:59;2.33;;;2.13;;
15858;SDS011;8029;52.202;7.308;2022-07-05T05:49:25;1.95;;;1.85;;
15858;SDS011;8029;52.202;7.308;2022-07-05T05:51:51;2.20;;;2.00;;
15858;SDS011;8029;52.202;7.308;2022-07-05T05:54:17;2.35;;;2.05;;
15858;SDS011;8029;52.202;7.308;2022-07-05T05:56:43;3.85;;;2.42;;
15858;SDS011;8029;52.202;7.308;2022-07-05T05:59:09;1.52;;;1.42;;
15858;SDS011;8029;52.202;7.308;2022-07-05T06:01:35;3.35;;;1.35;;
15858;SDS011;8029;52.202;7.308;2022-07-05T06:04:01;1.83;;;1.67;;
15858;SDS011;8029;52.202;7.308;2022-07-05T06:06:27;2.58;;;1.58;;
15858;SDS011;8029;52.202;7.308;2022-07-05T06:08:53;2.33;;;1.83;;
15858;SDS011;8029;52.202;7.308;2022-07-05T06:11:19;4.97;;;1.95;;
15858;SDS011;8029;52.202;7.308;2022-07-05T06:13:46;1.95;;;1.85;;
15858;SDS011;8029;52.202;7.308;2022-07-05T06:16:12;2.40;;;2.00;;
15858;SDS011;8029;52.202;7.308;2022-07-05T06:18:38;1.83;;;1.50;;
15858;SDS011;8029;52.202;7.308;2022-07-05T06:21:04;2.72;;;1.75;;
15858;SDS011;8029;52.202;7.308;2022-07-05T06:23:30;13.88;;;1.73;;
15858;SDS011;8029;52.202;7.308;2022-07-05T06:25:56;1.90;;;1.65;;
15858;SDS011;8029;52.202;7.308;2022-07-05T06:28:22;1.55;;;1.42;;
15858;SDS011;8029;52.202;7.308;2022-07-05T06:30:48;1.92;;;1.83;;
15858;SDS011;8029;52.202;7.308;2022-07-05T06:33:14;2.95;;;1.48;;
15858;SDS011;8029;52.202;7.308;2022-07-05T06:35:40;2.80;;;1.58;;
15858;SDS011;8029;52.202;7.308;2022-07-05T06:38:06;3.13;;;1.85;;
15858;SDS011;8029;52.202;7.308;2022-07-05T06:40:36;1.85;;;1.60;;
15858;SDS011;8029;52.202;7.308;2022-07-05T06:43:03;1.20;;;1.20;;
15858;SDS011;8029;52.202;7.308;2022-07-05T06:45:29;3.05;;;1.40;;
15858;SDS011;8029;52.202;7.308;2022-07-05T06:47:56;1.50;;;1.40;;
15858;SDS011;8029;52.202;7.308;2022-07-05T06:50:22;1.13;;;1.05;;
15858;SDS011;8029;52.202;7.308;2022-07-05T06:52:48;5.50;;;2.35;;
15858;SDS011;8029;52.202;7.308;2022-07-05T06:55:15;2.28;;;1.30;;
15858;SDS011;8029;52.202;7.308;2022-07-05T06:57:41;3.05;;;1.80;;
15858;SDS011;8029;52.202;7.308;2022-07-05T07:00:08;1.60;;;1.35;;
15858;SDS011;8029;52.202;7.308;2022-07-05T07:02:35;1.42;;;1.33;;
15858;SDS011;8029;52.202;7.308;2022-07-05T07:05:01;5.43;;;1.42;;
15858;SDS011;8029;52.202;7.308;2022-07-05T07:07:27;3.42;;;2.00;;
15858;SDS011;8029;52.202;7.308;2022-07-05T07:10:11;3.28;;;1.55;;
15858;SDS011;8029;52.202;7.308;2022-07-05T07:12:37;1.60;;;1.50;;
15858;SDS011;8029;52.202;7.308;2022-07-05T07:15:04;1.38;;;1.27;;
15858;SDS011;8029;52.202;7.308;2022-07-05T07:17:30;1.77;;;1.67;;
15858;SDS011;8029;52.202;7.308;2022-07-05T07:19:56;1.35;;;1.10;;
15858;SDS011;8029;52.202;7.308;2022-07-05T07:22:21;3.63;;;1.38;;
15858;SDS011;8029;52.202;7.308;2022-07-05T07:24:47;1.27;;;1.17;;
15858;SDS011;8029;52.202;7.308;2022-07-05T07:27:14;1.40;;;1.30;;
15858;SDS011;8029;52.202;7.308;2022-07-05T07:29:40;2.20;;;1.25;;
15858;SDS011;8029;52.202;7.308;2022-07-05T07:32:08;2.05;;;1.73;;
15858;SDS011;8029;52.202;7.308;2022-07-05T07:34:35;1.13;;;1.10;;
15858;SDS011;8029;52.202;7.308;2022-07-05T07:37:03;2.65;;;1.30;;
15858;SDS011;8029;52.202;7.308;2022-07-05T07:39:29;0.95;;;0.90;;
15858;SDS011;8029;52.202;7.308;2022-07-05T07:41:57;1.38;;;1.10;;
15858;SDS011;8029;52.202;7.308;2022-07-05T07:44:23;0.70;;;0.70;;
15858;SDS011;8029;52.202;7.308;2022-07-05T07:46:49;1.00;;;0.90;;
15858;SDS011;8029;52.202;7.308;2022-07-05T07:49:15;1.00;;;1.00;;
15858;SDS011;8029;52.202;7.308;2022-07-05T07:51:42;0.45;;;0.45;;
15858;SDS011;8029;52.202;7.308;2022-07-05T07:54:08;0.90;;;0.77;;
15858;SDS011;8029;52.202;7.308;2022-07-05T07:56:34;0.57;;;0.57;;
15858;SDS011;8029;52.202;7.308;2022-07-05T07:59:00;1.25;;;0.85;;
15858;SDS011;8029;52.202;7.308;2022-07-05T08:01:26;0.43;;;0.43;;
15858;SDS011;8029;52.202;7.308;2022-07-05T08:03:52;7.03;;;1.38;;
15858;SDS011;8029;52.202;7.308;2022-07-05T08:06:18;0.98;;;0.90;;
15858;SDS011;8029;52.202;7.308;2022-07-05T08:08:44;1.02;;;0.98;;
15858;SDS011;8029;52.202;7.308;2022-07-05T08:11:11;4.15;;;0.95;;
15858;SDS011;8029;52.202;7.308;2022-07-05T08:13:38;0.70;;;0.70;;
15858;SDS011;8029;52.202;7.308;2022-07-05T08:16:08;2.78;;;1.15;;
15858;SDS011;8029;52.202;7.308;2022-07-05T08:18:34;0.50;;;0.50;;
15858;SDS011;8029;52.202;7.308;2022-07-05T08:21:19;0.93;;;0.93;;
15858;SDS011;8029;52.202;7.308;2022-07-05T08:23:57;0.38;;;0.30;;
15858;SDS011;8029;52.202;7.308;2022-07-05T08:26:24;0.70;;;0.70;;
15858;SDS011;8029;52.202;7.308;2022-07-05T08:28:50;1.85;;;1.38;;
15858;SDS011;8029;52.202;7.308;2022-07-05T08:31:16;1.42;;;0.77;;
15858;SDS011;8029;52.202;7.308;2022-07-05T08:33:42;0.30;;;0.30;;
15858;SDS011;8029;52.202;7.308;2022-07-05T08:36:08;0.75;;;0.75;;
15858;SDS011;8029;52.202;7.308;2022-07-05T08:38:34;0.95;;;0.63;;
15858;SDS011;8029;52.202;7.308;2022-07-05T08:41:00;1.35;;;0.73;;
15858;SDS011;8029;52.202;7.308;2022-07-05T08:43:28;0.60;;;0.60;;
15858;SDS011;8029;52.202;7.308;2022-07-05T08:45:54;0.77;;;0.70;;
15858;SDS011;8029;52.202;7.308;2022-07-05T08:48:21;0.38;;;0.38;;
15858;SDS011;8029;52.202;7.308;2022-07-05T08:50:49;2.00;;;0.90;;
15858;SDS011;8029;52.202;7.308;2022-07-05T08:53:20;1.17;;;0.82;;
15858;SDS011;8029;52.202;7.308;2022-07-05T08:55:46;1.48;;;0.93;;
15858;SDS011;8029;52.202;7.308;2022-07-05T08:58:12;0.40;;;0.40;;
15858;SDS011;8029;52.202;7.308;2022-07-05T09:00:38;1.35;;;0.95;;
15858;SDS011;8029;52.202;7.308;2022-07-05T09:03:04;0.90;;;0.60;;
15858;SDS011;8029;52.202;7.308;2022-07-05T09:05:30;2.00;;;0.63;;
15858;SDS011;8029;52.202;7.308;2022-07-05T09:07:59;0.50;;;0.50;;
15858;SDS011;8029;52.202;7.308;2022-07-05T09:10:26;0.75;;;0.65;;
15858;SDS011;8029;52.202;7.308;2022-07-05T09:12:53;0.98;;;0.85;;
15858;SDS011;8029;52.202;7.308;2022-07-05T09:15:19;1.38;;;0.70;;
15858;SDS011;8029;52.202;7.308;2022-07-05T09:17:46;1.08;;;0.60;;
15858;SDS011;8029;52.202;7.308;2022-07-05T09:20:13;0.65;;;0.65;;
15858;SDS011;8029;52.202;7.308;2022-07-05T09:22:49;1.67;;;0.82;;
15858;SDS011;8029;52.202;7.308;2022-07-05T09:27:47;1.00;;;0.65;;
15858;SDS011;8029;52.202;7.308;2022-07-05T09:30:22;0.73;;;0.40;;
15858;SDS011;8029;52.202;7.308;2022-07-05T09:32:58;1.15;;;0.50;;
15858;SDS011;8029;52.202;7.308;2022-07-05T09:35:26;2.72;;;1.00;;
15858;SDS011;8029;52.202;7.308;2022-07-05T09:37:53;0.13;;;0.13;;
15858;SDS011;8029;52.202;7.308;2022-07-05T09:40:20;0.82;;;0.35;;
15858;SDS011;8029;52.202;7.308;2022-07-05T09:42:46;0.35;;;0.35;;
15858;SDS011;8029;52.202;7.308;2022-07-05T09:45:12;0.40;;;0.32;;
15858;SDS011;8029;52.202;7.308;2022-07-05T09:47:48;0.47;;;0.47;;
15858;SDS011;8029;52.202;7.308;2022-07-05T09:50:14;0.50;;;0.50;;
15858;SDS011;8029;52.202;7.308;2022-07-05T09:52:41;1.15;;;0.60;;
15858;SDS011;8029;52.202;7.308;2022-07-05T09:55:08;0.20;;;0.20;;
15858;SDS011;8029;52.202;7.308;2022-07-05T09:57:35;0.50;;;0.43;;
15858;SDS011;8029;52.202;7.308;2022-07-05T10:00:06;2.60;;;1.10;;
15858;SDS011;8029;52.202;7.308;2022-07-05T10:02:36;0.20;;;0.20;;
15858;SDS011;8029;52.202;7.308;2022-07-05T10:05:12;0.50;;;0.50;;
15858;SDS011;8029;52.202;7.308;2022-07-05T10:07:57;4.57;;;0.73;;
15858;SDS011;8029;52.202;7.308;2022-07-05T10:10:24;1.52;;;0.68;;
15858;SDS011;8029;52.202;7.308;2022-07-05T10:12:51;0.47;;;0.40;;
15858;SDS011;8029;52.202;7.308;2022-07-05T10:15:23;0.40;;;0.40;;
15858;SDS011;8029;52.202;7.308;2022-07-05T10:17:51;0.43;;;0.43;;
15858;SDS011;8029;52.202;7.308;2022-07-05T10:20:34;0.73;;;0.70;;
15858;SDS011;8029;52.202;7.308;2022-07-05T10:23:08;0.82;;;0.70;;
15858;SDS011;8029;52.202;7.308;2022-07-05T10:25:35;0.35;;;0.35;;
15858;SDS011;8029;52.202;7.308;2022-07-05T10:28:02;1.15;;;0.75;;
15858;SDS011;8029;52.202;7.308;2022-07-05T10:30:28;0.60;;;0.60;;
15858;SDS011;8029;52.202;7.308;2022-07-05T10:32:54;0.32;;;0.30;;
15858;SDS011;8029;52.202;7.308;2022-07-05T10:35:21;0.32;;;0.30;;
15858;SDS011;8029;52.202;7.308;2022-07-05T10:37:49;1.10;;;0.63;;
15858;SDS011;8029;52.202;7.308;2022-07-05T10:40:16;0.80;;;0.75;;
15858;SDS011;8029;52.202;7.308;2022-07-05T10:42:46;4.88;;;0.75;;
15858;SDS011;8029;52.202;7.308;2022-07-05T10:50:52;0.45;;;0.45;;
15858;SDS011;8029;52.202;7.308;2022-07-05T10:53:28;0.82;;;0.82;;
15858;SDS011;8029;52.202;7.308;2022-07-05T10:55:58;0.55;;;0.30;;
15858;SDS011;8029;52.202;7.308;2022-07-05T11:03:40;1.13;;;0.75;;
15858;SDS011;8029;52.202;7.308;2022-07-05T11:06:06;0.40;;;0.40;;
15858;SDS011;8029;52.202;7.308;2022-07-05T11:11:21;0.40;;;0.38;;
15858;SDS011;8029;52.202;7.308;2022-07-05T11:13:48;0.40;;;0.40;;
15858;SDS011;8029;52.202;7.308;2022-07-05T11:18:47;0.38;;;0.38;;
15858;SDS011;8029;52.202;7.308;2022-07-05T11:21:17;0.73;;;0.70;;
15858;SDS011;8029;52.202;7.308;2022-07-05T11:23:45;0.73;;;0.40;;
15858;SDS011;8029;52.202;7.308;2022-07-05T11:26:11;0.88;;;0.60;;
15858;SDS011;8029;52.202;7.308;2022-07-05T11:28:45;0.45;;;0.45;;
15858;SDS011;8029;52.202;7.308;2022-07-05T11:31:11;0.50;;;0.50;;
15858;SDS011;8029;52.202;7.308;2022-07-05T11:33:41;0.77;;;0.60;;
15858;SDS011;8029;52.202;7.308;2022-07-05T11:36:24;2.70;;;0.50;;
15858;SDS011;8029;52.202;7.308;2022-07-05T11:39:07;2.17;;;0.68;;
15858;SDS011;8029;52.202;7.308;2022-07-05T11:41:33;0.40;;;0.40;;
15858;SDS011;8029;52.202;7.308;2022-07-05T11:43:59;0.40;;;0.40;;
15858;SDS011;8029;52.202;7.308;2022-07-05T11:46:27;0.70;;;0.70;;
15858;SDS011;8029;52.202;7.308;2022-07-05T11:48:54;0.40;;;0.40;;
15858;SDS011;8029;52.202;7.308;2022-07-05T11:51:20;0.40;;;0.40;;
15858;SDS011;8029;52.202;7.308;2022-07-05T11:53:46;0.57;;;0.57;;
15858;SDS011;8029;52.202;7.308;2022-07-05T11:56:12;0.75;;;0.70;;
15858;SDS011;8029;52.202;7.308;2022-07-05T11:58:38;0.30;;;0.30;;
15858;SDS011;8029;52.202;7.308;2022-07-05T12:01:04;0.40;;;0.40;;
15858;SDS011;8029;52.202;7.308;2022-07-05T12:03:31;0.63;;;0.60;;
15858;SDS011;8029;52.202;7.308;2022-07-05T12:05:57;0.75;;;0.63;;
15858;SDS011;8029;52.202;7.308;2022-07-05T12:08:24;0.45;;;0.45;;
15858;SDS011;8029;52.202;7.308;2022-07-05T12:10:50;0.77;;;0.77;;
15858;SDS011;8029;52.202;7.308;2022-07-05T12:13:42;1.23;;;0.52;;
15858;SDS011;8029;52.202;7.308;2022-07-05T12:16:08;1.60;;;0.60;;
15858;SDS011;8029;52.202;7.308;2022-07-05T12:18:47;0.80;;;0.77;;
15858;SDS011;8029;52.202;7.308;2022-07-05T12:21:14;0.47;;;0.47;;
15858;SDS011;8029;52.202;7.308;2022-07-05T12:23:43;0.30;;;0.30;;
15858;SDS011;8029;52.202;7.308;2022-07-05T12:26:10;1.33;;;0.70;;
15858;SDS011;8029;52.202;7.308;2022-07-05T12:28:36;0.40;;;0.40;;
15858;SDS011;8029;52.202;7.308;2022-07-05T12:31:18;0.20;;;0.20;;
15858;SDS011;8029;52.202;7.308;2022-07-05T12:33:44;0.63;;;0.63;;
15858;SDS011;8029;52.202;7.308;2022-07-05T12:36:11;0.50;;;0.50;;
15858;SDS011;8029;52.202;7.308;2022-07-05T12:38:38;1.23;;;0.45;;
15858;SDS011;8029;52.202;7.308;2022-07-05T12:41:04;0.75;;;0.75;;
15858;SDS011;8029;52.202;7.308;2022-07-05T12:43:30;0.47;;;0.47;;
15858;SDS011;8029;52.202;7.308;2022-07-05T12:46:05;0.20;;;0.20;;
15858;SDS011;8029;52.202;7.308;2022-07-05T12:48:37;0.20;;;0.20;;
15858;SDS011;8029;52.202;7.308;2022-07-05T12:51:04;0.40;;;0.40;;
15858;SDS011;8029;52.202;7.308;2022-07-05T12:53:30;1.45;;;0.57;;
15858;SDS011;8029;52.202;7.308;2022-07-05T12:56:15;0.70;;;0.60;;
15858;SDS011;8029;52.202;7.308;2022-07-05T12:59:00;1.77;;;0.65;;
15858;SDS011;8029;52.202;7.308;2022-07-05T13:01:28;0.98;;;0.77;;
15858;SDS011;8029;52.202;7.308;2022-07-05T13:09:13;1.67;;;0.88;;
15858;SDS011;8029;52.202;7.308;2022-07-05T13:11:39;1.63;;;0.85;;
15858;SDS011;8029;52.202;7.308;2022-07-05T13:14:06;1.60;;;0.52;;
15858;SDS011;8029;52.202;7.308;2022-07-05T13:16:32;0.50;;;0.50;;
15858;SDS011;8029;52.202;7.308;2022-07-05T13:19:08;0.75;;;0.60;;
15858;SDS011;8029;52.202;7.308;2022-07-05T13:21:34;1.92;;;0.75;;
15858;SDS011;8029;52.202;7.308;2022-07-05T13:24:00;0.47;;;0.47;;
15858;SDS011;8029;52.202;7.308;2022-07-05T13:26:26;0.47;;;0.47;;
15858;SDS011;8029;52.202;7.308;2022-07-05T13:28:53;0.32;;;0.32;;
15858;SDS011;8029;52.202;7.308;2022-07-05T13:31:19;1.58;;;0.60;;
15858;SDS011;8029;52.202;7.308;2022-07-05T13:33:45;0.70;;;0.70;;
15858;SDS011;8029;52.202;7.308;2022-07-05T13:36:11;0.60;;;0.60;;
15858;SDS011;8029;52.202;7.308;2022-07-05T13:38:37;0.70;;;0.70;;
15858;SDS011;8029;52.202;7.308;2022-07-05T13:41:03;1.58;;;0.95;;
15858;SDS011;8029;52.202;7.308;2022-07-05T13:43:29;0.50;;;0.50;;
15858;SDS011;8029;52.202;7.308;2022-07-05T13:45:55;1.10;;;1.00;;
15858;SDS011;8029;52.202;7.308;2022-07-05T13:48:21;1.38;;;0.60;;
15858;SDS011;8029;52.202;7.308;2022-07-05T13:50:47;1.10;;;1.00;;
15858;SDS011;8029;52.202;7.308;2022-07-05T13:53:13;1.17;;;1.02;;
15858;SDS011;8029;52.202;7.308;2022-07-05T13:55:39;1.48;;;0.70;;
15858;SDS011;8029;52.202;7.308;2022-07-05T13:58:05;0.85;;;0.85;;
15858;SDS011;8029;52.202;7.308;2022-07-05T14:00:31;0.55;;;0.55;;
15858;SDS011;8029;52.202;7.308;2022-07-05T14:02:57;0.80;;;0.55;;
15858;SDS011;8029;52.202;7.308;2022-07-05T14:05:23;0.43;;;0.43;;
15858;SDS011;8029;52.202;7.308;2022-07-05T14:07:49;0.60;;;0.60;;
15858;SDS011;8029;52.202;7.308;2022-07-05T14:10:15;1.75;;;0.60;;
15858;SDS011;8029;52.202;7.308;2022-07-05T14:12:41;0.68;;;0.68;;
15858;SDS011;8029;52.202;7.308;2022-07-05T14:15:07;0.75;;;0.75;;
15858;SDS011;8029;52.202;7.308;2022-07-05T14:17:33;1.13;;;0.88;;
15858;SDS011;8029;52.202;7.308;2022-07-05T14:19:59;0.60;;;0.60;;
15858;SDS011;8029;52.202;7.308;2022-07-05T14:22:25;0.60;;;0.47;;
15858;SDS011;8029;52.202;7.308;2022-07-05T14:24:51;1.13;;;1.00;;
15858;SDS011;8029;52.202;7.308;2022-07-05T14:27:17;0.70;;;0.63;;
15858;SDS011;8029;52.202;7.308;2022-07-05T14:29:43;0.73;;;0.57;;
15858;SDS011;8029;52.202;7.308;2022-07-05T14:32:09;10.77;;;0.80;;
15858;SDS011;8029;52.202;7.308;2022-07-05T14:34:35;2.92;;;1.13;;
15858;SDS011;8029;52.202;7.308;2022-07-05T14:37:01;0.70;;;0.70;;
15858;SDS011;8029;52.202;7.308;2022-07-05T14:39:27;0.57;;;0.57;;
15858;SDS011;8029;52.202;7.308;2022-07-05T14:41:54;0.93;;;0.80;;
15858;SDS011;8029;52.202;7.308;2022-07-05T14:44:20;1.10;;;0.57;;
15858;SDS011;8029;52.202;7.308;2022-07-05T14:46:46;0.60;;;0.60;;
15858;SDS011;8029;52.202;7.308;2022-07-05T14:49:12;4.43;;;1.30;;
15858;SDS011;8029;52.202;7.308;2022-07-05T14:51:38;2.28;;;1.30;;
15858;SDS011;8029;52.202;7.308;2022-07-05T14:54:04;0.68;;;0.68;;
15858;SDS011;8029;52.202;7.308;2022-07-05T14:56:30;2.35;;;0.75;;
15858;SDS011;8029;52.202;7.308;2022-07-05T14:58:56;1.08;;;0.73;;
15858;SDS011;8029;52.202;7.308;2022-07-05T15:01:22;1.20;;;0.83;;
15858;SDS011;8029;52.202;7.308;2022-07-05T15:03:48;1.80;;;1.10;;
15858;SDS011;8029;52.202;7.308;2022-07-05T15:06:14;1.20;;;0.90;;
15858;SDS011;8029;52.202;7.308;2022-07-05T15:08:41;0.50;;;0.50;;
15858;SDS011;8029;52.202;7.308;2022-07-05T15:11:07;0.40;;;0.40;;
15858;SDS011;8029;52.202;7.308;2022-07-05T15:13:33;0.55;;;0.55;;
15858;SDS011;8029;52.202;7.308;2022-07-05T15:16:00;1.30;;;0.88;;
15858;SDS011;8029;52.202;7.308;2022-07-05T15:18:26;0.40;;;0.40;;
15858;SDS011;8029;52.202;7.308;2022-07-05T15:20:52;1.77;;;0.88;;
15858;SDS011;8029;52.202;7.308;2022-07-05T15:23:19;14.98;;;0.90;;